Tremont, Mississippi
Current Conditions -  °F | °C
As of 1:53 PM on Thursday 29 Jan 2015 (Local Time) from KTUP Reporting Station
Clear Clear  
Wind Chill: 67°   Ceiling: Unl
Heat Index: 67°   Visibility: 10mi
Dew Point: 47°   Wind: 12mph
Humidity: 49%   Direction: 270°W
Pressure: 30.07"   Gusts: 16mph
Location:  34.23°N, 88.26°W
Report Text: KTUP 291953Z 27010G14KT 10SM CLR 19/08 A3007 RMK AO2 SLP182 T01940083
Loading
Personal Weather Stations






























Interactive Weather Map New forecast layout! Learn more

10-Day Weather Forecast

Advertisements
Track Severe Weather on mobile